sensor_id;sensor_type;location;lat;lon;timestamp;noise_LAeq;noise_LA_min;noise_LA_max;noise_LA01;noise_LA95
47962;Laerm;33723;50.928;6.960;2023-02-01T06:04:28;68.01;53.27;81.16;;
47962;Laerm;33723;50.928;6.960;2023-02-01T06:06:53;63.62;52.90;73.66;;
47962;Laerm;33723;50.928;6.960;2023-02-01T06:09:19;68.74;54.33;80.53;;
47962;Laerm;33723;50.928;6.960;2023-02-01T06:11:44;66.09;53.07;77.08;;
47962;Laerm;33723;50.928;6.960;2023-02-01T06:14:09;65.59;54.04;73.97;;
47962;Laerm;33723;50.928;6.960;2023-02-01T06:16:34;66.20;55.01;77.22;;
47962;Laerm;33723;50.928;6.960;2023-02-01T06:19:00;65.65;51.90;74.95;;
47962;Laerm;33723;50.928;6.960;2023-02-01T06:21:25;66.68;53.43;80.31;;
47962;Laerm;33723;50.928;6.960;2023-02-01T06:23:51;66.82;54.39;78.84;;
47962;Laerm;33723;50.928;6.960;2023-02-01T06:26:16;65.56;53.86;79.81;;
47962;Laerm;33723;50.928;6.960;2023-02-01T06:28:43;66.73;53.17;76.32;;
47962;Laerm;33723;50.928;6.960;2023-02-01T06:31:08;67.38;56.27;82.93;;
47962;Laerm;33723;50.928;6.960;2023-02-01T06:33:34;67.10;54.72;75.29;;
47962;Laerm;33723;50.928;6.960;2023-02-01T06:35:59;66.70;54.08;80.44;;
47962;Laerm;33723;50.928;6.960;2023-02-01T06:38:25;67.39;55.07;85.25;;
47962;Laerm;33723;50.928;6.960;2023-02-01T06:40:54;66.57;53.59;74.00;;
47962;Laerm;33723;50.928;6.960;2023-02-01T06:43:21;67.79;55.68;78.31;;
47962;Laerm;33723;50.928;6.960;2023-02-01T06:45:46;66.09;54.15;75.35;;
47962;Laerm;33723;50.928;6.960;2023-02-01T06:48:11;69.31;56.56;89.46;;
47962;Laerm;33723;50.928;6.960;2023-02-01T06:50:36;68.87;56.01;85.05;;
47962;Laerm;33723;50.928;6.960;2023-02-01T06:53:02;67.31;56.11;75.04;;
47962;Laerm;33723;50.928;6.960;2023-02-01T06:55:27;66.18;54.38;88.68;;
47962;Laerm;33723;50.928;6.960;2023-02-01T06:57:53;68.72;56.61;77.83;;
47962;Laerm;33723;50.928;6.960;2023-02-01T07:00:18;66.46;55.81;77.37;;
47962;Laerm;33723;50.928;6.960;2023-02-01T07:02:43;70.21;57.54;81.21;;
47962;Laerm;33723;50.928;6.960;2023-02-01T07:05:09;64.55;55.40;71.89;;
47962;Laerm;33723;50.928;6.960;2023-02-01T07:07:34;67.94;55.69;77.25;;
47962;Laerm;33723;50.928;6.960;2023-02-01T07:09:59;68.92;56.09;79.08;;
47962;Laerm;33723;50.928;6.960;2023-02-01T07:12:24;69.64;54.82;90.25;;
47962;Laerm;33723;50.928;6.960;2023-02-01T07:14:50;66.98;54.67;86.01;;
47962;Laerm;33723;50.928;6.960;2023-02-01T07:17:15;68.72;55.71;83.05;;
47962;Laerm;33723;50.928;6.960;2023-02-01T07:19:40;67.53;55.45;88.00;;
47962;Laerm;33723;50.928;6.960;2023-02-01T07:22:05;66.02;53.97;76.30;;
47962;Laerm;33723;50.928;6.960;2023-02-01T07:24:30;68.85;56.53;79.29;;
47962;Laerm;33723;50.928;6.960;2023-02-01T07:26:56;63.81;53.92;72.34;;
47962;Laerm;33723;50.928;6.960;2023-02-01T07:29:21;66.76;54.94;79.66;;
47962;Laerm;33723;50.928;6.960;2023-02-01T07:31:46;68.54;55.86;85.44;;
47962;Laerm;33723;50.928;6.960;2023-02-01T07:34:12;67.56;54.82;82.48;;
47962;Laerm;33723;50.928;6.960;2023-02-01T07:36:38;68.89;59.25;82.95;;
47962;Laerm;33723;50.928;6.960;2023-02-01T07:39:03;68.78;54.80;89.95;;
47962;Laerm;33723;50.928;6.960;2023-02-01T07:41:29;70.30;58.13;81.47;;
47962;Laerm;33723;50.928;6.960;2023-02-01T07:43:54;65.37;54.22;74.61;;
47962;Laerm;33723;50.928;6.960;2023-02-01T07:46:19;66.02;55.45;75.46;;
47962;Laerm;33723;50.928;6.960;2023-02-01T07:48:45;67.12;54.33;80.33;;
47962;Laerm;33723;50.928;6.960;2023-02-01T07:51:11;64.42;54.69;73.55;;
47962;Laerm;33723;50.928;6.960;2023-02-01T07:53:37;68.41;55.98;93.49;;
47962;Laerm;33723;50.928;6.960;2023-02-01T07:56:02;67.14;53.14;78.16;;
47962;Laerm;33723;50.928;6.960;2023-02-01T07:58:28;68.51;56.91;80.18;;
47962;Laerm;33723;50.928;6.960;2023-02-01T08:00:53;67.85;54.56;81.58;;
47962;Laerm;33723;50.928;6.960;2023-02-01T08:03:37;67.88;55.97;78.92;;
47962;Laerm;33723;50.928;6.960;2023-02-01T08:06:04;65.53;53.02;83.63;;
47962;Laerm;33723;50.928;6.960;2023-02-01T08:08:30;68.14;53.92;89.22;;
47962;Laerm;33723;50.928;6.960;2023-02-01T08:10:58;66.26;54.38;82.69;;
47962;Laerm;33723;50.928;6.960;2023-02-01T08:13:24;65.73;51.71;79.24;;
47962;Laerm;33723;50.928;6.960;2023-02-01T08:15:49;67.42;55.08;88.65;;
47962;Laerm;33723;50.928;6.960;2023-02-01T08:18:14;67.22;52.73;81.36;;
47962;Laerm;33723;50.928;6.960;2023-02-01T08:20:41;65.82;56.20;75.09;;
47962;Laerm;33723;50.928;6.960;2023-02-01T08:23:08;64.42;53.90;79.10;;
47962;Laerm;33723;50.928;6.960;2023-02-01T08:25:34;68.71;56.65;82.09;;
47962;Laerm;33723;50.928;6.960;2023-02-01T08:28:01;66.28;55.24;79.36;;
47962;Laerm;33723;50.928;6.960;2023-02-01T08:30:26;66.11;51.33;79.73;;
47962;Laerm;33723;50.928;6.960;2023-02-01T08:32:52;66.59;51.24;77.00;;
47962;Laerm;33723;50.928;6.960;2023-02-01T08:35:17;66.98;51.90;78.99;;
47962;Laerm;33723;50.928;6.960;2023-02-01T08:37:43;65.92;52.04;80.95;;
47962;Laerm;33723;50.928;6.960;2023-02-01T08:40:08;66.03;52.42;81.50;;
47962;Laerm;33723;50.928;6.960;2023-02-01T08:42:33;65.87;51.51;79.01;;
47962;Laerm;33723;50.928;6.960;2023-02-01T08:45:17;71.08;54.38;95.81;;
47962;Laerm;33723;50.928;6.960;2023-02-01T08:47:44;65.54;52.67;81.46;;
47962;Laerm;33723;50.928;6.960;2023-02-01T08:50:09;63.94;49.35;85.54;;
47962;Laerm;33723;50.928;6.960;2023-02-01T08:52:34;67.03;53.03;81.60;;
47962;Laerm;33723;50.928;6.960;2023-02-01T08:55:00;69.27;52.87;90.79;;
47962;Laerm;33723;50.928;6.960;2023-02-01T08:57:25;66.58;54.27;81.34;;
47962;Laerm;33723;50.928;6.960;2023-02-01T08:59:50;69.89;55.70;87.89;;
47962;Laerm;33723;50.928;6.960;2023-02-01T09:02:16;65.54;51.99;78.20;;
47962;Laerm;33723;50.928;6.960;2023-02-01T09:04:41;66.60;52.57;79.96;;
47962;Laerm;33723;50.928;6.960;2023-02-01T09:07:10;70.35;55.30;93.70;;
47962;Laerm;33723;50.928;6.960;2023-02-01T09:09:35;66.16;52.57;83.13;;
47962;Laerm;33723;50.928;6.960;2023-02-01T09:12:00;64.93;51.13;89.78;;
47962;Laerm;33723;50.928;6.960;2023-02-01T09:14:26;65.25;51.84;79.66;;
47962;Laerm;33723;50.928;6.960;2023-02-01T09:16:51;67.08;51.73;79.77;;
47962;Laerm;33723;50.928;6.960;2023-02-01T09:19:16;67.01;52.38;79.46;;
47962;Laerm;33723;50.928;6.960;2023-02-01T09:21:41;66.41;55.22;85.91;;
47962;Laerm;33723;50.928;6.960;2023-02-01T09:24:08;66.39;51.76;84.26;;
47962;Laerm;33723;50.928;6.960;2023-02-01T09:26:33;67.84;55.02;89.38;;
47962;Laerm;33723;50.928;6.960;2023-02-01T09:28:59;71.98;54.09;100.68;;
47962;Laerm;33723;50.928;6.960;2023-02-01T09:31:25;66.39;52.09;86.20;;
47962;Laerm;33723;50.928;6.960;2023-02-01T09:33:50;67.31;55.59;80.17;;
47962;Laerm;33723;50.928;6.960;2023-02-01T09:36:15;70.10;55.12;94.83;;
47962;Laerm;33723;50.928;6.960;2023-02-01T09:38:40;66.72;54.57;89.33;;
47962;Laerm;33723;50.928;6.960;2023-02-01T09:41:26;69.39;52.63;88.45;;
47962;Laerm;33723;50.928;6.960;2023-02-01T09:44:04;67.56;53.25;87.97;;
47962;Laerm;33723;50.928;6.960;2023-02-01T09:46:32;68.59;54.21;87.90;;
47962;Laerm;33723;50.928;6.960;2023-02-01T09:49:05;67.52;54.00;86.06;;
47962;Laerm;33723;50.928;6.960;2023-02-01T09:51:37;64.64;48.43;83.76;;
47962;Laerm;33723;50.928;6.960;2023-02-01T09:54:04;67.93;53.76;87.33;;
47962;Laerm;33723;50.928;6.960;2023-02-01T09:59:30;66.62;52.03;91.78;;
47962;Laerm;33723;50.928;6.960;2023-02-01T10:01:57;68.43;53.93;89.61;;
47962;Laerm;33723;50.928;6.960;2023-02-01T10:04:24;69.30;55.64;94.62;;
47962;Laerm;33723;50.928;6.960;2023-02-01T10:20:06;64.78;52.41;80.79;;
47962;Laerm;33723;50.928;6.960;2023-02-01T10:22:40;65.86;50.98;85.26;;
47962;Laerm;33723;50.928;6.960;2023-02-01T10:27:46;66.72;50.61;77.71;;
47962;Laerm;33723;50.928;6.960;2023-02-01T10:32:39;64.76;53.07;80.33;;
47962;Laerm;33723;50.928;6.960;2023-02-01T10:35:10;65.89;53.07;79.93;;
47962;Laerm;33723;50.928;6.960;2023-02-01T10:37:37;67.38;54.17;87.06;;
47962;Laerm;33723;50.928;6.960;2023-02-01T10:42:40;66.83;53.68;79.61;;
47962;Laerm;33723;50.928;6.960;2023-02-01T10:45:05;66.87;53.01;82.54;;
47962;Laerm;33723;50.928;6.960;2023-02-01T10:47:31;65.12;54.30;84.07;;
47962;Laerm;33723;50.928;6.960;2023-02-01T10:52:26;64.10;51.08;80.77;;
47962;Laerm;33723;50.928;6.960;2023-02-01T10:54:54;69.01;54.79;83.97;;
47962;Laerm;33723;50.928;6.960;2023-02-01T10:57:23;67.27;54.31;82.24;;
47962;Laerm;33723;50.928;6.960;2023-02-01T10:59:50;66.09;53.48;77.16;;
47962;Laerm;33723;50.928;6.960;2023-02-01T11:02:19;64.33;53.24;78.92;;
47962;Laerm;33723;50.928;6.960;2023-02-01T11:04:45;68.63;53.44;86.91;;
47962;Laerm;33723;50.928;6.960;2023-02-01T11:09:39;66.47;51.93;85.14;;
47962;Laerm;33723;50.928;6.960;2023-02-01T11:12:05;63.86;52.68;80.97;;
47962;Laerm;33723;50.928;6.960;2023-02-01T11:14:39;68.60;54.79;81.21;;
47962;Laerm;33723;50.928;6.960;2023-02-01T11:19:43;68.89;52.70;88.76;;
47962;Laerm;33723;50.928;6.960;2023-02-01T11:22:09;67.66;52.35;84.59;;
47962;Laerm;33723;50.928;6.960;2023-02-01T11:24:37;71.37;55.21;90.11;;
47962;Laerm;33723;50.928;6.960;2023-02-01T11:27:05;71.68;52.15;94.90;;
47962;Laerm;33723;50.928;6.960;2023-02-01T11:29:33;67.57;50.92;85.75;;
47962;Laerm;33723;50.928;6.960;2023-02-01T11:32:00;63.16;51.25;79.97;;
47962;Laerm;33723;50.928;6.960;2023-02-01T11:34:29;66.37;52.52;86.97;;
47962;Laerm;33723;50.928;6.960;2023-02-01T11:36:58;67.84;54.93;85.77;;
47962;Laerm;33723;50.928;6.960;2023-02-01T11:39:26;66.80;51.28;81.14;;
47962;Laerm;33723;50.928;6.960;2023-02-01T11:44:32;66.26;52.54;75.61;;
47962;Laerm;33723;50.928;6.960;2023-02-01T11:47:31;68.89;55.76;88.31;;
47962;Laerm;33723;50.928;6.960;2023-02-01T11:49:50;67.97;55.13;86.87;;
47962;Laerm;33723;50.928;6.960;2023-02-01T11:53:04;69.09;53.07;81.78;;
47962;Laerm;33723;50.928;6.960;2023-02-01T12:05:31;66.64;53.32;80.03;;
47962;Laerm;33723;50.928;6.960;2023-02-01T12:13:32;68.12;53.36;84.67;;
47962;Laerm;33723;50.928;6.960;2023-02-01T12:24:05;65.96;52.36;78.09;;
47962;Laerm;33723;50.928;6.960;2023-02-01T12:29:26;65.50;49.53;81.94;;
47962;Laerm;33723;50.928;6.960;2023-02-01T12:36:50;66.96;54.38;77.14;;
47962;Laerm;33723;50.928;6.960;2023-02-01T12:41:45;68.63;54.53;87.40;;
47962;Laerm;33723;50.928;6.960;2023-02-01T12:46:57;67.29;53.18;91.51;;
47962;Laerm;33723;50.928;6.960;2023-02-01T12:52:06;65.74;53.16;75.41;;
47962;Laerm;33723;50.928;6.960;2023-02-01T12:54:34;66.60;52.62;90.59;;
47962;Laerm;33723;50.928;6.960;2023-02-01T12:57:03;66.44;53.43;85.61;;
47962;Laerm;33723;50.928;6.960;2023-02-01T12:59:34;67.38;54.39;81.04;;
47962;Laerm;33723;50.928;6.960;2023-02-01T13:02:08;68.92;53.90;92.35;;
47962;Laerm;33723;50.928;6.960;2023-02-01T13:04:49;68.80;52.08;91.64;;
47962;Laerm;33723;50.928;6.960;2023-02-01T13:07:18;65.41;53.26;85.23;;
47962;Laerm;33723;50.928;6.960;2023-02-01T13:09:52;65.08;51.03;80.60;;
47962;Laerm;33723;50.928;6.960;2023-02-01T13:12:37;72.24;53.52;92.56;;
47962;Laerm;33723;50.928;6.960;2023-02-01T13:15:05;65.15;52.53;79.09;;
47962;Laerm;33723;50.928;6.960;2023-02-01T13:17:36;66.60;52.29;84.26;;
47962;Laerm;33723;50.928;6.960;2023-02-01T13:22:49;70.48;55.12;91.01;;
47962;Laerm;33723;50.928;6.960;2023-02-01T13:25:22;67.57;52.78;82.11;;
47962;Laerm;33723;50.928;6.960;2023-02-01T13:27:53;64.63;52.28;74.04;;
47962;Laerm;33723;50.928;6.960;2023-02-01T13:30:20;66.31;51.98;78.38;;
47962;Laerm;33723;50.928;6.960;2023-02-01T13:45:23;69.19;55.83;82.54;;
47962;Laerm;33723;50.928;6.960;2023-02-01T13:47:49;66.52;52.24;79.83;;
47962;Laerm;33723;50.928;6.960;2023-02-01T13:50:21;81.60;53.77;101.79;;
47962;Laerm;33723;50.928;6.960;2023-02-01T13:52:53;67.14;57.30;77.73;;
47962;Laerm;33723;50.928;6.960;2023-02-01T13:57:47;67.16;54.29;85.23;;
47962;Laerm;33723;50.928;6.960;2023-02-01T14:00:27;67.31;55.30;78.69;;
47962;Laerm;33723;50.928;6.960;2023-02-01T14:03:02;67.17;53.68;82.50;;
47962;Laerm;33723;50.928;6.960;2023-02-01T14:13:28;67.04;53.23;81.33;;
47962;Laerm;33723;50.928;6.960;2023-02-01T14:23:40;68.24;54.94;83.90;;
47962;Laerm;33723;50.928;6.960;2023-02-01T14:26:07;66.94;54.02;79.29;;
47962;Laerm;33723;50.928;6.960;2023-02-01T14:28:33;68.61;54.74;85.17;;
47962;Laerm;33723;50.928;6.960;2023-02-01T14:31:00;67.67;55.54;77.00;;
47962;Laerm;33723;50.928;6.960;2023-02-01T14:33:26;67.39;54.46;84.24;;
47962;Laerm;33723;50.928;6.960;2023-02-01T14:38:26;66.37;55.23;79.10;;
47962;Laerm;33723;50.928;6.960;2023-02-01T14:40:51;66.62;53.78;79.85;;
47962;Laerm;33723;50.928;6.960;2023-02-01T14:43:17;67.54;55.02;78.47;;
47962;Laerm;33723;50.928;6.960;2023-02-01T14:45:46;66.22;53.68;76.60;;
47962;Laerm;33723;50.928;6.960;2023-02-01T14:50:40;65.43;54.69;80.79;;
47962;Laerm;33723;50.928;6.960;2023-02-01T15:03:50;66.94;54.36;86.24;;
47962;Laerm;33723;50.928;6.960;2023-02-01T15:08:45;66.73;55.86;78.34;;
47962;Laerm;33723;50.928;6.960;2023-02-01T15:11:13;69.14;56.00;86.47;;
47962;Laerm;33723;50.928;6.960;2023-02-01T15:13:39;68.50;54.95;80.76;;
47962;Laerm;33723;50.928;6.960;2023-02-01T15:16:14;66.23;52.76;81.17;;
47962;Laerm;33723;50.928;6.960;2023-02-01T15:18:40;65.47;53.91;77.39;;
47962;Laerm;33723;50.928;6.960;2023-02-01T15:21:06;66.53;52.33;76.97;;
47962;Laerm;33723;50.928;6.960;2023-02-01T15:23:32;64.57;51.13;73.11;;
47962;Laerm;33723;50.928;6.960;2023-02-01T15:25:57;69.63;52.08;89.35;;
47962;Laerm;33723;50.928;6.960;2023-02-01T15:28:24;67.50;53.60;88.87;;
47962;Laerm;33723;50.928;6.960;2023-02-01T15:30:57;65.98;53.84;77.93;;
47962;Laerm;33723;50.928;6.960;2023-02-01T15:33:23;65.93;52.19;84.05;;
47962;Laerm;33723;50.928;6.960;2023-02-01T15:35:49;67.72;54.53;87.12;;
47962;Laerm;33723;50.928;6.960;2023-02-01T15:40:53;67.08;54.89;79.57;;
47962;Laerm;33723;50.928;6.960;2023-02-01T15:43:19;65.96;53.87;81.81;;
47962;Laerm;33723;50.928;6.960;2023-02-01T15:45:44;64.86;53.29;70.79;;
47962;Laerm;33723;50.928;6.960;2023-02-01T15:48:14;66.84;55.51;89.03;;
47962;Laerm;33723;50.928;6.960;2023-02-01T15:50:44;67.28;54.79;80.42;;
47962;Laerm;33723;50.928;6.960;2023-02-01T15:53:12;64.81;53.02;74.13;;
47962;Laerm;33723;50.928;6.960;2023-02-01T15:55:40;66.80;53.33;78.61;;
47962;Laerm;33723;50.928;6.960;2023-02-01T15:58:07;66.63;54.45;83.50;;
47962;Laerm;33723;50.928;6.960;2023-02-01T16:03:22;66.77;55.03;79.52;;
47962;Laerm;33723;50.928;6.960;2023-02-01T16:05:54;67.39;54.88;91.02;;
47962;Laerm;33723;50.928;6.960;2023-02-01T16:08:21;67.64;54.13;86.82;;
47962;Laerm;33723;50.928;6.960;2023-02-01T16:10:47;66.41;54.45;78.88;;
47962;Laerm;33723;50.928;6.960;2023-02-01T16:13:13;65.37;53.95;81.54;;
47962;Laerm;33723;50.928;6.960;2023-02-01T16:15:39;66.47;54.32;74.88;;
47962;Laerm;33723;50.928;6.960;2023-02-01T16:18:04;68.65;53.34;85.82;;
47962;Laerm;33723;50.928;6.960;2023-02-01T16:20:30;66.94;53.87;78.08;;
47962;Laerm;33723;50.928;6.960;2023-02-01T16:22:55;66.10;53.57;81.86;;
47962;Laerm;33723;50.928;6.960;2023-02-01T16:25:21;66.71;55.26;84.50;;
47962;Laerm;33723;50.928;6.960;2023-02-01T16:27:46;68.39;54.21;85.46;;
47962;Laerm;33723;50.928;6.960;2023-02-01T16:30:12;67.14;51.88;77.59;;
47962;Laerm;33723;50.928;6.960;2023-02-01T16:32:37;68.45;53.70;80.96;;
47962;Laerm;33723;50.928;6.960;2023-02-01T16:35:04;67.75;56.47;80.16;;
47962;Laerm;33723;50.928;6.960;2023-02-01T16:37:30;66.62;53.16;77.48;;
47962;Laerm;33723;50.928;6.960;2023-02-01T16:39:57;68.28;54.44;77.11;;
47962;Laerm;33723;50.928;6.960;2023-02-01T16:42:22;67.63;53.58;86.43;;
47962;Laerm;33723;50.928;6.960;2023-02-01T16:44:47;66.43;54.69;81.85;;
47962;Laerm;33723;50.928;6.960;2023-02-01T16:47:19;67.75;55.88;73.52;;
47962;Laerm;33723;50.928;6.960;2023-02-01T16:49:45;67.29;58.58;78.04;;
47962;Laerm;33723;50.928;6.960;2023-02-01T16:52:16;67.09;57.31;74.38;;
47962;Laerm;33723;50.928;6.960;2023-02-01T16:54:42;67.09;56.43;75.42;;
47962;Laerm;33723;50.928;6.960;2023-02-01T16:57:11;66.59;54.17;79.49;;
47962;Laerm;33723;50.928;6.960;2023-02-01T16:59:36;67.79;54.58;79.29;;
47962;Laerm;33723;50.928;6.960;2023-02-01T17:02:01;67.33;54.91;78.01;;
47962;Laerm;33723;50.928;6.960;2023-02-01T17:04:27;67.51;53.05;80.44;;
47962;Laerm;33723;50.928;6.960;2023-02-01T17:06:52;66.07;55.50;75.55;;
47962;Laerm;33723;50.928;6.960;2023-02-01T17:09:17;67.98;57.25;77.03;;
47962;Laerm;33723;50.928;6.960;2023-02-01T17:11:42;66.24;54.95;72.84;;
47962;Laerm;33723;50.928;6.960;2023-02-01T17:16:39;68.78;54.55;87.00;;
47962;Laerm;33723;50.928;6.960;2023-02-01T17:19:05;66.42;54.26;74.83;;
47962;Laerm;33723;50.928;6.960;2023-02-01T17:21:36;67.74;54.96;79.32;;
47962;Laerm;33723;50.928;6.960;2023-02-01T17:24:03;68.22;55.28;77.35;;
47962;Laerm;33723;50.928;6.960;2023-02-01T17:26:28;67.59;54.59;75.44;;
47962;Laerm;33723;50.928;6.960;2023-02-01T17:28:53;68.74;55.53;81.07;;
47962;Laerm;33723;50.928;6.960;2023-02-01T17:31:19;68.09;55.33;79.88;;
47962;Laerm;33723;50.928;6.960;2023-02-01T17:33:44;65.92;53.40;78.18;;
47962;Laerm;33723;50.928;6.960;2023-02-01T17:36:14;66.72;52.97;77.44;;
47962;Laerm;33723;50.928;6.960;2023-02-01T17:38:39;66.77;54.94;76.57;;
47962;Laerm;33723;50.928;6.960;2023-02-01T17:41:05;66.36;55.04;80.31;;
47962;Laerm;33723;50.928;6.960;2023-02-01T17:43:30;66.48;54.15;76.07;;
47962;Laerm;33723;50.928;6.960;2023-02-01T17:45:59;67.48;55.41;79.55;;
47962;Laerm;33723;50.928;6.960;2023-02-01T17:48:27;67.43;52.89;76.28;;
47962;Laerm;33723;50.928;6.960;2023-02-01T17:50:53;67.65;55.80;76.52;;
47962;Laerm;33723;50.928;6.960;2023-02-01T17:53:23;67.13;54.81;74.54;;
47962;Laerm;33723;50.928;6.960;2023-02-01T17:55:48;68.47;56.31;77.31;;
47962;Laerm;33723;50.928;6.960;2023-02-01T17:58:14;66.14;54.57;81.23;;
47962;Laerm;33723;50.928;6.960;2023-02-01T18:00:40;67.84;56.49;79.67;;
47962;Laerm;33723;50.928;6.960;2023-02-01T18:03:07;68.39;54.78;81.93;;
47962;Laerm;33723;50.928;6.960;2023-02-01T18:05:40;67.46;54.23;76.92;;
47962;Laerm;33723;50.928;6.960;2023-02-01T18:08:05;65.92;52.85;75.48;;
47962;Laerm;33723;50.928;6.960;2023-02-01T18:10:30;65.66;52.29;79.78;;
47962;Laerm;33723;50.928;6.960;2023-02-01T18:12:56;67.31;52.15;91.47;;
47962;Laerm;33723;50.928;6.960;2023-02-01T18:15:22;67.40;55.38;81.90;;
47962;Laerm;33723;50.928;6.960;2023-02-01T18:17:48;65.52;53.62;75.74;;
47962;Laerm;33723;50.928;6.960;2023-02-01T18:20:15;67.18;54.43;79.04;;
47962;Laerm;33723;50.928;6.960;2023-02-01T18:22:41;66.74;52.08;80.94;;
47962;Laerm;33723;50.928;6.960;2023-02-01T18:25:25;67.14;53.57;88.50;;
47962;Laerm;33723;50.928;6.960;2023-02-01T18:27:51;65.49;53.27;77.79;;
47962;Laerm;33723;50.928;6.960;2023-02-01T18:30:17;65.58;52.90;73.36;;
47962;Laerm;33723;50.928;6.960;2023-02-01T18:32:42;65.00;52.46;79.24;;
47962;Laerm;33723;50.928;6.960;2023-02-01T18:35:25;66.08;52.14;77.80;;
47962;Laerm;33723;50.928;6.960;2023-02-01T18:37:51;66.97;56.08;84.34;;
47962;Laerm;33723;50.928;6.960;2023-02-01T18:40:18;65.48;53.97;74.73;;
47962;Laerm;33723;50.928;6.960;2023-02-01T18:42:44;64.57;52.21;74.28;;
47962;Laerm;33723;50.928;6.960;2023-02-01T18:45:28;65.08;54.48;75.81;;
47962;Laerm;33723;50.928;6.960;2023-02-01T18:47:54;66.07;51.17;80.45;;
47962;Laerm;33723;50.928;6.960;2023-02-01T18:50:19;66.69;54.63;73.58;;
47962;Laerm;33723;50.928;6.960;2023-02-01T18:52:45;64.93;53.19;73.24;;
47962;Laerm;33723;50.928;6.960;2023-02-01T18:55:11;64.81;52.29;87.18;;
47962;Laerm;33723;50.928;6.960;2023-02-01T18:57:36;64.61;51.97;84.27;;
47962;Laerm;33723;50.928;6.960;2023-02-01T19:00:03;64.63;51.91;81.96;;
47962;Laerm;33723;50.928;6.960;2023-02-01T19:02:29;65.15;53.84;74.68;;
47962;Laerm;33723;50.928;6.960;2023-02-01T19:04:54;65.34;52.76;82.82;;
47962;Laerm;33723;50.928;6.960;2023-02-01T19:07:19;63.16;50.49;77.88;;
47962;Laerm;33723;50.928;6.960;2023-02-01T19:09:45;65.38;52.45;74.73;;
47962;Laerm;33723;50.928;6.960;2023-02-01T19:12:10;66.48;49.84;86.66;;
47962;Laerm;33723;50.928;6.960;2023-02-01T19:14:36;64.15;52.38;73.04;;
47962;Laerm;33723;50.928;6.960;2023-02-01T19:17:01;64.27;52.78;80.37;;
47962;Laerm;33723;50.928;6.960;2023-02-01T19:19:26;64.37;48.36;79.74;;
47962;Laerm;33723;50.928;6.960;2023-02-01T19:21:52;68.54;50.09;89.10;;
47962;Laerm;33723;50.928;6.960;2023-02-01T19:24:17;66.15;53.96;81.96;;
47962;Laerm;33723;50.928;6.960;2023-02-01T19:26:42;64.02;51.24;80.12;;
47962;Laerm;33723;50.928;6.960;2023-02-01T19:29:09;63.13;49.14;80.10;;
47962;Laerm;33723;50.928;6.960;2023-02-01T19:31:34;63.85;48.31;82.45;;
47962;Laerm;33723;50.928;6.960;2023-02-01T19:33:59;65.96;50.45;89.50;;
47962;Laerm;33723;50.928;6.960;2023-02-01T19:36:25;65.56;48.67;77.57;;
47962;Laerm;33723;50.928;6.960;2023-02-01T19:38:50;63.72;50.65;74.82;;
47962;Laerm;33723;50.928;6.960;2023-02-01T19:41:16;65.06;49.41;83.81;;
47962;Laerm;33723;50.928;6.960;2023-02-01T19:43:41;65.17;47.81;77.79;;
47962;Laerm;33723;50.928;6.960;2023-02-01T19:46:06;67.20;51.18;87.98;;
47962;Laerm;33723;50.928;6.960;2023-02-01T19:48:31;64.08;48.03;81.88;;
47962;Laerm;33723;50.928;6.960;2023-02-01T19:50:58;65.57;50.11;82.33;;
47962;Laerm;33723;50.928;6.960;2023-02-01T19:53:23;64.32;47.16;84.90;;
47962;Laerm;33723;50.928;6.960;2023-02-01T19:55:52;63.28;49.34;85.85;;
47962;Laerm;33723;50.928;6.960;2023-02-01T19:58:18;63.41;47.50;78.07;;
47962;Laerm;33723;50.928;6.960;2023-02-01T20:00:43;65.04;51.19;79.30;;
47962;Laerm;33723;50.928;6.960;2023-02-01T20:03:08;63.92;48.25;78.53;;
47962;Laerm;33723;50.928;6.960;2023-02-01T20:05:34;62.26;48.55;70.57;;
47962;Laerm;33723;50.928;6.960;2023-02-01T20:08:00;64.93;48.32;78.78;;
47962;Laerm;33723;50.928;6.960;2023-02-01T20:10:26;63.01;50.57;79.39;;
47962;Laerm;33723;50.928;6.960;2023-02-01T20:12:51;66.65;50.23;86.37;;
47962;Laerm;33723;50.928;6.960;2023-02-01T20:15:16;66.27;51.17;88.23;;
47962;Laerm;33723;50.928;6.960;2023-02-01T20:17:41;64.84;51.04;82.21;;
47962;Laerm;33723;50.928;6.960;2023-02-01T20:20:08;65.01;50.90;85.67;;
47962;Laerm;33723;50.928;6.960;2023-02-01T20:22:33;63.30;48.74;79.28;;
47962;Laerm;33723;50.928;6.960;2023-02-01T20:24:58;64.92;49.53;84.74;;
47962;Laerm;33723;50.928;6.960;2023-02-01T20:27:24;64.15;47.24;84.83;;
47962;Laerm;33723;50.928;6.960;2023-02-01T20:29:49;63.59;48.74;85.72;;
47962;Laerm;33723;50.928;6.960;2023-02-01T20:32:14;62.87;49.24;78.18;;
47962;Laerm;33723;50.928;6.960;2023-02-01T20:34:40;61.61;47.02;73.60;;
47962;Laerm;33723;50.928;6.960;2023-02-01T20:37:05;63.23;49.41;80.04;;
47962;Laerm;33723;50.928;6.960;2023-02-01T20:39:30;63.21;47.65;91.75;;
47962;Laerm;33723;50.928;6.960;2023-02-01T20:41:56;63.11;47.22;77.77;;
47962;Laerm;33723;50.928;6.960;2023-02-01T20:44:21;63.47;52.13;78.68;;
47962;Laerm;33723;50.928;6.960;2023-02-01T20:46:46;62.09;48.05;69.82;;
47962;Laerm;33723;50.928;6.960;2023-02-01T20:49:11;67.84;51.52;86.86;;
47962;Laerm;33723;50.928;6.960;2023-02-01T20:51:37;65.25;49.33;81.98;;
47962;Laerm;33723;50.928;6.960;2023-02-01T20:54:02;63.11;48.77;81.60;;
47962;Laerm;33723;50.928;6.960;2023-02-01T20:56:27;63.48;48.92;80.05;;
47962;Laerm;33723;50.928;6.960;2023-02-01T20:58:52;62.45;47.12;80.11;;
47962;Laerm;33723;50.928;6.960;2023-02-01T21:01:27;64.28;51.02;84.99;;
47962;Laerm;33723;50.928;6.960;2023-02-01T21:03:52;65.08;47.24;84.84;;
47962;Laerm;33723;50.928;6.960;2023-02-01T21:06:17;66.01;50.94;87.75;;
47962;Laerm;33723;50.928;6.960;2023-02-01T21:08:43;64.61;47.63;85.98;;
47962;Laerm;33723;50.928;6.960;2023-02-01T21:11:09;61.97;47.50;81.43;;
47962;Laerm;33723;50.928;6.960;2023-02-01T21:13:36;62.84;48.51;76.64;;
47962;Laerm;33723;50.928;6.960;2023-02-01T21:16:07;64.00;52.71;86.82;;
47962;Laerm;33723;50.928;6.960;2023-02-01T21:18:32;64.09;47.36;86.83;;
47962;Laerm;33723;50.928;6.960;2023-02-01T21:21:05;67.73;46.91;93.26;;
47962;Laerm;33723;50.928;6.960;2023-02-01T21:23:31;63.85;48.91;86.02;;
47962;Laerm;33723;50.928;6.960;2023-02-01T21:25:59;63.17;49.93;78.01;;
47962;Laerm;33723;50.928;6.960;2023-02-01T21:28:24;68.23;46.33;96.75;;
47962;Laerm;33723;50.928;6.960;2023-02-01T21:30:49;61.33;46.66;85.40;;
47962;Laerm;33723;50.928;6.960;2023-02-01T21:33:14;60.92;47.74;73.64;;
47962;Laerm;33723;50.928;6.960;2023-02-01T21:35:40;64.71;48.10;82.25;;
47962;Laerm;33723;50.928;6.960;2023-02-01T21:38:06;61.34;46.89;76.64;;
47962;Laerm;33723;50.928;6.960;2023-02-01T21:40:31;61.78;46.71;83.24;;
47962;Laerm;33723;50.928;6.960;2023-02-01T21:42:57;61.54;48.63;75.35;;
47962;Laerm;33723;50.928;6.960;2023-02-01T21:45:22;64.27;48.87;81.94;;
47962;Laerm;33723;50.928;6.960;2023-02-01T21:47:47;61.64;48.21;70.68;;
47962;Laerm;33723;50.928;6.960;2023-02-01T21:50:13;60.15;45.14;72.30;;
47962;Laerm;33723;50.928;6.960;2023-02-01T21:52:39;62.66;51.17;72.18;;
47962;Laerm;33723;50.928;6.960;2023-02-01T21:55:04;77.25;47.38;105.61;;
47962;Laerm;33723;50.928;6.960;2023-02-01T21:57:31;61.26;49.35;72.40;;
47962;Laerm;33723;50.928;6.960;2023-02-01T21:59:56;58.47;46.52;71.35;;